createdAt,value
2023-03-02T04:57:47.074Z,21.65
2023-03-02T05:00:49.696Z,22.00
2023-03-02T05:03:53.057Z,21.12
2023-03-02T05:06:55.816Z,17.98
2023-03-02T05:09:57.916Z,23.70
2023-03-02T05:13:04.824Z,22.27
2023-03-02T05:16:07.179Z,22.77
2023-03-02T05:19:12.511Z,21.23
2023-03-02T05:22:14.684Z,22.37
2023-03-02T05:25:17.116Z,26.35
2023-03-02T05:28:20.690Z,21.02
2023-03-02T05:31:26.346Z,21.50
2023-03-02T05:34:28.792Z,23.70
2023-03-02T05:37:31.154Z,22.13
2023-03-02T05:40:33.718Z,24.63
2023-03-02T05:43:36.348Z,25.20
2023-03-02T05:46:38.558Z,24.45
2023-03-02T05:49:40.981Z,22.17
2023-03-02T05:52:43.081Z,23.92
2023-03-02T05:55:45.431Z,21.58
2023-03-02T05:58:47.553Z,20.12
2023-03-02T06:01:50.324Z,27.33
2023-03-02T06:04:52.693Z,23.58
2023-03-02T06:07:54.847Z,21.65
2023-03-02T06:10:57.761Z,24.25
2023-03-02T06:14:02.092Z,24.50
2023-03-02T06:17:04.729Z,24.27
2023-03-02T06:20:11.166Z,20.90
2023-03-02T06:23:14.018Z,19.87
2023-03-02T06:26:16.572Z,22.90
2023-03-02T06:29:18.993Z,20.70
2023-03-02T06:32:21.399Z,25.00
2023-03-02T06:35:24.351Z,28.60
2023-03-02T06:38:26.584Z,21.87
2023-03-02T06:41:28.984Z,30.90
2023-03-02T06:44:31.224Z,20.42
2023-03-02T06:47:33.978Z,24.58
2023-03-02T06:50:36.204Z,28.67
2023-03-02T06:53:38.600Z,21.33
2023-03-02T06:56:41.177Z,13.73
2023-03-02T06:59:43.641Z,15.63
2023-03-02T07:02:46.559Z,18.92
2023-03-02T07:05:49.996Z,12.30
2023-03-02T07:08:52.187Z,16.10
2023-03-02T07:11:54.583Z,12.18
2023-03-02T07:14:57.237Z,10.95
2023-03-02T07:17:59.667Z,12.52
2023-03-02T07:21:02.320Z,14.07
2023-03-02T07:24:05.133Z,12.93
2023-03-02T07:27:07.408Z,11.82
2023-03-02T07:30:10.723Z,14.93
2023-03-02T07:33:12.873Z,13.35
2023-03-02T07:36:15.808Z,16.73
2023-03-02T07:39:18.915Z,16.98
2023-03-02T07:42:21.325Z,13.70
2023-03-02T07:45:25.611Z,16.27
2023-03-02T07:48:28.017Z,19.83
2023-03-02T07:51:30.623Z,14.18
2023-03-02T07:54:33.195Z,14.87
2023-03-02T07:57:35.873Z,17.77
2023-03-02T08:00:41.260Z,16.08
2023-03-02T08:03:45.055Z,13.35
2023-03-02T08:06:47.199Z,15.40
2023-03-02T08:09:50.555Z,15.95
2023-03-02T08:12:52.752Z,12.18
2023-03-02T08:16:01.844Z,14.32
2023-03-02T08:19:04.192Z,13.65
2023-03-02T08:22:06.637Z,16.00
2023-03-02T08:25:08.949Z,18.62
2023-03-02T08:28:11.608Z,13.70
2023-03-02T08:31:14.506Z,14.02
2023-03-02T08:34:17.074Z,13.45
2023-03-02T08:37:19.493Z,16.48
2023-03-02T08:40:21.946Z,13.57
2023-03-02T08:43:25.435Z,18.98
2023-03-02T08:46:27.891Z,12.98
2023-03-02T08:49:30.883Z,16.60
2023-03-02T08:52:34.667Z,18.87
2023-03-02T08:55:37.881Z,14.13
2023-03-02T08:58:41.855Z,14.82
2023-03-02T09:01:44.116Z,16.02
2023-03-02T09:04:47.051Z,15.38
2023-03-02T09:07:50.126Z,13.65
2023-03-02T09:10:53.115Z,13.88
2023-03-02T09:13:56.269Z,16.95
2023-03-02T09:16:58.988Z,15.82
2023-03-02T09:20:01.163Z,14.05
2023-03-02T09:23:03.609Z,16.70
2023-03-02T09:26:06.066Z,13.60
2023-03-02T09:29:09.807Z,17.37
2023-03-02T09:32:13.510Z,13.25
2023-03-02T09:35:16.135Z,12.93
2023-03-02T09:38:19.060Z,13.32
2023-03-02T09:41:21.749Z,11.93
2023-03-02T09:45:15.060Z,18.80
2023-03-02T09:48:37.407Z,12.27
2023-03-02T09:51:58.264Z,15.43
2023-03-02T09:55:13.651Z,12.18
2023-03-02T09:58:19.992Z,15.32
2023-03-02T10:01:34.584Z,10.23
2023-03-02T10:04:44.314Z,13.50
2023-03-02T10:07:47.918Z,11.15
2023-03-02T10:11:23.563Z,11.63
2023-03-02T10:14:39.272Z,9.90
2023-03-02T10:18:10.920Z,11.57
2023-03-02T10:21:22.600Z,13.98
2023-03-02T10:24:39.922Z,12.85
2023-03-02T10:27:49.712Z,10.60
2023-03-02T10:31:09.479Z,10.57
2023-03-02T10:34:12.392Z,16.40
2023-03-02T10:37:18.751Z,13.35
2023-03-02T10:41:00.119Z,9.80
2023-03-02T10:44:08.721Z,18.35
2023-03-02T10:47:26.937Z,13.40
2023-03-02T10:50:30.766Z,10.27
2023-03-02T10:53:33.172Z,11.85
2023-03-02T10:56:36.252Z,10.90
2023-03-02T10:59:43.816Z,11.25
2023-03-02T11:02:56.939Z,10.38
2023-03-02T11:06:16.583Z,14.43
2023-03-02T11:09:19.365Z,11.95
2023-03-02T11:12:21.541Z,11.57
2023-03-02T11:15:40.329Z,12.18
2023-03-02T11:19:12.001Z,9.95
2023-03-02T11:22:32.691Z,10.55
2023-03-02T11:25:40.446Z,11.20
2023-03-02T11:28:49.069Z,10.68
2023-03-02T11:31:56.339Z,13.75
2023-03-02T11:35:13.828Z,11.77
2023-03-02T11:38:54.795Z,10.70
2023-03-02T11:41:58.573Z,13.90
2023-03-02T11:45:11.129Z,13.77
2023-03-02T11:48:29.804Z,16.83
2023-03-02T11:51:50.083Z,13.43
2023-03-02T11:55:03.317Z,13.82
2023-03-02T11:58:06.222Z,10.98
2023-03-02T12:01:17.765Z,12.80
2023-03-02T12:04:39.057Z,14.10
2023-03-02T12:07:41.622Z,12.02
2023-03-02T12:11:15.490Z,12.23
2023-03-02T12:14:47.120Z,12.10
2023-03-02T12:17:49.621Z,15.88
2023-03-02T12:21:10.390Z,14.02
2023-03-02T12:24:31.032Z,13.02
2023-03-02T12:27:39.727Z,14.25
2023-03-02T12:30:42.513Z,11.25
2023-03-02T12:33:50.874Z,14.07
2023-03-02T12:37:33.325Z,13.38
2023-03-02T12:41:17.502Z,10.77
2023-03-02T12:44:43.884Z,12.37
2023-03-02T12:47:51.432Z,11.70
2023-03-02T12:51:02.313Z,11.75
2023-03-02T12:54:06.745Z,9.48
2023-03-02T12:57:15.803Z,15.30
2023-03-02T13:00:21.073Z,10.80
2023-03-02T13:03:24.600Z,10.23
2023-03-02T13:06:30.610Z,9.27
2023-03-02T13:09:33.031Z,13.82
2023-03-02T13:12:36.663Z,11.52
2023-03-02T13:15:59.990Z,11.35
2023-03-02T13:19:11.375Z,12.82
2023-03-02T13:22:14.917Z,10.88
2023-03-02T13:25:29.167Z,9.70
2023-03-02T13:28:34.481Z,12.43
2023-03-02T13:31:36.808Z,11.63
2023-03-02T13:34:49.462Z,11.75
2023-03-02T13:38:02.314Z,17.75
2023-03-02T13:41:05.507Z,14.80
2023-03-02T13:44:19.936Z,11.77
2023-03-02T13:47:24.611Z,13.83
2023-03-02T13:50:29.922Z,12.63
2023-03-02T13:53:37.823Z,11.12
2023-03-02T13:56:41.210Z,11.18
2023-03-02T13:59:44.986Z,15.85
2023-03-02T14:02:48.641Z,11.10
2023-03-02T14:05:51.931Z,10.48
2023-03-02T14:08:54.076Z,11.35
2023-03-02T14:11:57.742Z,13.62
2023-03-02T14:15:03.525Z,12.98
2023-03-02T14:18:31.036Z,14.18
2023-03-02T14:21:33.526Z,14.25
2023-03-02T14:24:36.109Z,13.27
2023-03-02T14:27:38.940Z,11.05
2023-03-02T14:30:44.427Z,11.75
2023-03-02T14:33:46.580Z,11.38
2023-03-02T14:36:52.425Z,13.00
2023-03-02T14:39:55.729Z,17.45
2023-03-02T14:42:58.180Z,11.82
2023-03-02T14:46:00.305Z,15.65
2023-03-02T14:49:02.784Z,10.38
2023-03-02T14:52:07.552Z,11.05
2023-03-02T14:55:25.834Z,14.82
2023-03-02T14:58:33.767Z,12.77
2023-03-02T15:01:36.371Z,11.70
2023-03-02T15:04:38.579Z,9.82
2023-03-02T15:07:41.340Z,9.32
2023-03-02T15:10:43.562Z,15.30
2023-03-02T15:13:45.967Z,24.17
2023-03-02T15:16:48.066Z,11.35
2023-03-02T15:19:50.442Z,12.48
2023-03-02T15:22:52.841Z,13.43
2023-03-02T15:26:02.239Z,16.10
2023-03-02T15:29:04.943Z,11.95
2023-03-02T15:32:07.500Z,13.32
2023-03-02T15:35:12.432Z,11.18
2023-03-02T15:38:14.992Z,10.45
2023-03-02T15:41:17.446Z,13.88
2023-03-02T15:44:23.748Z,15.52
2023-03-02T15:47:25.992Z,12.57
2023-03-02T15:50:28.371Z,15.02
2023-03-02T15:53:32.818Z,18.67
2023-03-02T15:56:43.740Z,21.23
2023-03-02T15:59:46.799Z,13.75
2023-03-02T16:02:49.903Z,13.70
2023-03-02T16:05:52.612Z,12.23
2023-03-02T16:08:54.750Z,14.68
2023-03-02T16:11:57.676Z,14.30
2023-03-02T16:14:59.838Z,22.85
2023-03-02T16:18:02.194Z,12.07
2023-03-02T16:21:04.956Z,12.23
2023-03-02T16:24:07.865Z,14.07
2023-03-02T16:27:10.117Z,16.12
2023-03-02T16:30:13.280Z,15.07
2023-03-02T16:33:17.913Z,13.55
2023-03-02T16:36:21.616Z,12.48
2023-03-02T16:39:23.847Z,14.68
2023-03-02T16:42:28.417Z,12.57
2023-03-02T16:45:30.515Z,15.30
2023-03-02T16:48:32.875Z,16.23
2023-03-02T16:51:34.949Z,14.82
2023-03-02T16:54:37.307Z,61.15
